Lawton Fort Sill Regional Airport
KLAW : now visible

Airfield :











YOU CAN JOIN US ON...

 
LOGIN :

Register | Disclaimer

   EN    FR    IT 

 









Legend :    VFR   Marginal VFR   IFR   Intensive IFR   Very Intensive IFR
Visi :
Ceiling :
>= 8 km
>= 3000ft
5 to 8 km
1000 to 3000 ft
1500m to 5 km
500 to 1000 ft
800 to 1500m
200 to 500 ft
< 800m
< 200 ft
Symbols :   Thunderstorms  Fog  Heavy snow  Heavy precipitations  Wind > 20 kt






- Airport Elevation : 1110 ft


KLAW - Lawton Fort Sill Regional

CURRENT METAR :
  • 190153Z AUTO 36011KT 10SM CLR 10/M02 A3005 RMK AO2 SLP181 T01001022

EXPIRED METARs :
  • 190053Z AUTO 36013KT 10SM CLR 11/M02 A3001 RMK AO2 SLP170 T01111022
  • 182353Z 36010KT 10SM CLR 12/M02 A2997 RMK AO2 SLP155 T01171017 10178 20117 53026

TAF KLAW
Valid from the 19 at 00:00 until the 20 at 00:00 UTC


182320Z 1900/1924 36011KT P6SM SCT250
FM190400 01014G22KT P6SM BKN120 BKN200
FM191000 02012KT P6SM BKN100 BKN180
KZFW FIR / North America



MET'MAP, your aeronautical weather chart ! - Copyright ORBIFLY December 2007 - Disclaimer

ORBIFLY MET'MAP TEAM :

Programming & Development : Alexandra Zaïnal
Concept & original design : Baudouin d'Aumeries
Assistance for programming : Marc-Olivier Méhu
Technical & hardware support : Manuel Goepfert

Contact : metmap@orbifly.com




SOURCES & CREDITS :

   NOAA       Earth
Advisory